Time;durP1;ratioP1;P1;durP2;ratioP2;P2;SDS_P1;SDS_P2;PMS_P1;PMS_P2;Temp;Humidity;BMP_temperature;BMP_pressure;BME280_temperature;BME280_humidity;BME280_pressure;Samples;Min_cycle;Max_cycle;Signal;HPM_P1;HPM_P2
2022/06/30 00:01:48;;;;;;;3.80;3.22;;;;;;;26.30;47.38;100599.27;1712265;82;21062;-82
2022/06/30 00:04:14;;;;;;;5.75;3.52;;;;;;;26.31;47.37;100595.86;1711375;83;21062;-82
2022/06/30 00:06:46;;;;;;;4.72;3.65;;;;;;;26.30;47.41;100583.92;1711448;83;21113;-82
2022/06/30 00:09:13;;;;;;;3.72;3.25;;;;;;;26.30;47.42;100588.11;1712062;82;21121;-82
2022/06/30 00:11:41;;;;;;;5.65;3.47;;;;;;;26.30;47.43;100587.29;1711394;82;20991;-82
2022/06/30 00:14:07;;;;;;;4.78;3.40;;;;;;;26.30;47.44;100589.50;1711552;82;21035;-82
2022/06/30 00:16:33;;;;;;;3.55;3.08;;;;;;;26.30;47.49;100588.69;1711772;83;21066;-82
2022/06/30 00:19:06;;;;;;;3.75;3.35;;;;;;;26.30;47.48;100584.50;1711387;82;21063;-82
2022/06/30 00:21:32;;;;;;;4.97;3.20;;;;;;;26.29;47.51;100586.48;1711755;82;21524;-82
2022/06/30 00:23:59;;;;;;;4.95;3.72;;;;;;;26.29;47.51;100588.45;1711724;82;21047;-82
2022/06/30 00:26:26;;;;;;;3.50;3.02;;;;;;;26.29;47.55;100589.27;1711560;82;21130;-82
2022/06/30 00:28:52;;;;;;;4.53;2.83;;;;;;;26.29;47.56;100586.48;1711817;82;21071;-82
2022/06/30 00:31:19;;;;;;;4.33;3.00;;;;;;;26.29;47.57;100590.66;1711752;82;21553;-82
2022/06/30 00:33:45;;;;;;;4.28;3.35;;;;;;;26.30;47.60;100591.48;1711380;82;21723;-82
2022/06/30 00:36:11;;;;;;;3.85;3.35;;;;;;;26.29;47.62;100587.88;1711773;82;21087;-82
2022/06/30 00:38:38;;;;;;;4.55;3.17;;;;;;;26.29;47.63;100582.87;1711795;83;21047;-82
2022/06/30 00:41:05;;;;;;;3.80;3.25;;;;;;;26.29;47.66;100579.50;1711455;82;21035;-82
2022/06/30 00:43:31;;;;;;;4.12;3.25;;;;;;;26.28;47.68;100584.85;1711826;82;21558;-82
2022/06/30 00:45:57;;;;;;;4.00;3.17;;;;;;;26.29;47.69;100587.06;1672318;83;21143;-82
2022/06/30 00:48:24;;;;;;;5.83;3.33;;;;;;;26.29;47.73;100585.66;1711486;82;21660;-82
2022/06/30 00:50:50;;;;;;;4.20;3.05;;;;;;;26.29;47.74;100588.45;1695622;83;21067;-82
2022/06/30 00:53:17;;;;;;;4.10;3.33;;;;;;;26.29;47.74;100585.66;1711785;82;21042;-82
2022/06/30 00:55:43;;;;;;;4.22;2.92;;;;;;;26.28;47.76;100594.61;1695186;83;21115;-82
2022/06/30 00:58:09;;;;;;;3.37;3.08;;;;;;;26.29;47.80;100595.42;1671355;83;21984;-82
2022/06/30 01:00:41;;;;;;;3.83;3.00;;;;;;;26.28;47.80;100600.19;1712162;82;21077;-82
2022/06/30 01:03:08;;;;;;;5.45;3.15;;;;;;;26.28;47.81;100591.02;1711391;82;21043;-82
2022/06/30 01:05:35;;;;;;;4.92;3.22;;;;;;;26.28;47.82;100589.03;1711496;82;21536;-82
2022/06/30 01:08:02;;;;;;;4.97;3.60;;;;;;;26.28;47.83;100593.22;1711639;82;21011;-82
2022/06/30 01:13:13;;;;;;;3.45;2.67;;;;;;;26.26;47.88;100585.81;1711541;82;21790;-82
2022/06/30 01:15:40;;;;;;;3.42;3.05;;;;;;;26.28;47.85;100582.64;1711415;82;21010;-82
2022/06/30 01:18:06;;;;;;;3.87;3.47;;;;;;;26.27;47.88;100582.41;1711693;83;21058;-82
2022/06/30 01:20:33;;;;;;;3.40;2.95;;;;;;;26.27;47.90;100581.83;1685633;83;21054;-82
2022/06/30 01:23:02;;;;;;;4.25;3.33;;;;;;;26.28;47.91;100575.67;1711691;83;21666;-82
2022/06/30 01:25:28;;;;;;;3.42;3.10;;;;;;;26.27;47.92;100579.63;1685481;83;21146;-82
2022/06/30 01:27:55;;;;;;;3.87;3.27;;;;;;;26.27;47.92;100571.26;1711776;82;22121;-82
2022/06/30 01:30:22;;;;;;;4.35;3.55;;;;;;;26.26;47.94;100571.88;1711558;82;21116;-82
2022/06/30 01:32:48;;;;;;;5.35;3.27;;;;;;;26.27;47.98;100579.63;1711759;82;21058;-82
2022/06/30 01:35:15;;;;;;;3.52;3.17;;;;;;;26.26;47.97;100573.27;1711664;82;21121;-82
2022/06/30 01:37:50;;;;;;;5.05;3.58;;;;;;;26.26;48.01;100580.82;1730560;81;21471;-82
2022/06/30 01:40:18;;;;;;;3.92;3.52;;;;;;;26.26;48.03;100580.23;1737293;82;21121;-82
2022/06/30 01:42:44;;;;;;;4.08;3.22;;;;;;;26.27;48.01;100582.41;1743233;81;21328;-82
2022/06/30 01:45:11;;;;;;;4.60;3.40;;;;;;;26.26;48.05;100574.66;1722934;82;21024;-82
2022/06/30 01:47:43;;;;;;;4.45;3.55;;;;;;;26.27;48.07;100573.47;1722944;81;21669;-82
2022/06/30 01:50:13;;;;;;;4.72;3.67;;;;;;;26.26;48.08;100570.48;1721877;81;21058;-82
2022/06/30 01:52:40;;;;;;;4.20;3.47;;;;;;;26.26;48.09;100574.66;1722803;82;24583;-82
2022/06/30 01:55:07;;;;;;;6.03;3.33;;;;;;;26.27;48.08;100572.66;1722509;83;21014;-82
2022/06/30 01:57:35;;;;;;;4.58;3.47;;;;;;;26.26;48.11;100576.64;1722193;83;21112;-82
2022/06/30 02:00:03;;;;;;;4.33;3.17;;;;;;;26.26;48.14;100580.82;1722396;83;21956;-82
2022/06/30 02:02:29;;;;;;;3.55;3.22;;;;;;;26.26;48.11;100569.08;1721045;83;21084;-82
2022/06/30 02:04:56;;;;;;;4.70;3.42;;;;;;;26.25;48.14;100568.04;1720604;83;21131;-82
2022/06/30 02:07:23;;;;;;;4.37;3.67;;;;;;;26.25;48.15;100567.45;1720751;83;21609;-82
2022/06/30 02:09:55;;;;;;;4.80;3.60;;;;;;;26.25;48.18;100566.64;1721173;83;21211;-82
2022/06/30 02:15:08;;;;;;;3.98;3.60;;;;;;;26.25;48.21;100574.43;1693140;84;21012;-82
2022/06/30 02:17:41;;;;;;;5.75;3.95;;;;;;;26.25;48.19;100568.04;1692936;84;21526;-82
2022/06/30 02:20:09;;;;;;;4.03;3.40;;;;;;;26.24;48.19;100559.44;1665196;84;21100;-82
2022/06/30 02:22:36;;;;;;;4.42;3.15;;;;;;;26.24;48.21;100558.86;1693297;84;21127;-82
2022/06/30 02:25:09;;;;;;;4.22;3.55;;;;;;;26.24;48.23;100560.25;1665454;86;21131;-82
2022/06/30 02:27:35;;;;;;;4.47;3.65;;;;;;;26.24;48.22;100560.25;1693094;84;21542;-82
2022/06/30 02:30:02;;;;;;;4.62;3.72;;;;;;;26.24;48.23;100557.47;1665256;84;21080;-82
2022/06/30 02:32:28;;;;;;;4.78;3.98;;;;;;;26.24;48.25;100558.05;1692934;84;21048;-82
2022/06/30 02:34:56;;;;;;;5.05;4.08;;;;;;;26.23;48.28;100561.41;1665631;84;21096;-83
2022/06/30 02:37:22;;;;;;;4.60;3.67;;;;;;;26.23;48.25;100558.63;1693344;84;21960;-83
2022/06/30 02:39:49;;;;;;;5.47;3.50;;;;;;;26.24;48.29;100564.44;1665134;85;21065;-83
2022/06/30 02:42:15;;;;;;;4.17;3.60;;;;;;;26.24;48.26;100565.83;1693097;84;21104;-83
2022/06/30 02:44:41;;;;;;;4.42;3.60;;;;;;;26.23;48.28;100569.78;1701822;83;21013;-83
2022/06/30 02:47:08;;;;;;;4.40;3.72;;;;;;;26.23;48.31;100566.18;1723543;83;21551;-82
2022/06/30 02:49:36;;;;;;;5.00;3.62;;;;;;;26.23;48.33;100570.37;1723874;82;21117;-82
2022/06/30 02:52:03;;;;;;;4.92;3.67;;;;;;;26.23;48.32;100572.57;1723475;83;21563;-82
2022/06/30 02:54:29;;;;;;;3.55;2.98;;;;;;;26.23;48.33;100571.17;1733278;82;21449;-82
2022/06/30 02:56:56;;;;;;;4.53;3.75;;;;;;;26.24;48.35;100578.96;1733429;82;21088;-82
2022/06/30 02:59:22;;;;;;;4.33;3.90;;;;;;;26.24;48.35;100581.75;1733365;82;21058;-82
2022/06/30 03:01:49;;;;;;;4.10;3.70;;;;;;;26.23;48.36;100580.94;1733975;81;21094;-82
2022/06/30 03:04:16;;;;;;;4.95;3.67;;;;;;;26.24;48.38;100585.94;1733720;82;22000;-82
2022/06/30 03:06:48;;;;;;;4.85;3.72;;;;;;;26.24;48.36;100583.95;1734143;82;21050;-82
2022/06/30 03:09:15;;;;;;;4.80;4.05;;;;;;;26.23;48.39;100578.73;1733555;82;21087;-82
2022/06/30 03:11:41;;;;;;;4.25;3.75;;;;;;;26.24;48.42;100580.36;1734098;82;21569;-82
2022/06/30 03:14:08;;;;;;;4.78;3.55;;;;;;;26.23;48.41;100576.75;1733852;82;21111;-82
2022/06/30 03:16:34;;;;;;;4.80;3.87;;;;;;;26.24;48.39;100577.56;1733874;82;21526;-82
2022/06/30 03:19:06;;;;;;;4.75;3.47;;;;;;;26.22;48.43;100576.55;1733998;82;21014;-82
2022/06/30 03:21:33;;;;;;;5.55;3.77;;;;;;;26.23;48.44;100571.17;1733962;82;21103;-82
2022/06/30 03:23:59;;;;;;;4.20;3.77;;;;;;;26.24;48.44;100576.17;1733887;82;20988;-82
2022/06/30 03:26:26;;;;;;;4.53;3.37;;;;;;;26.23;48.44;100573.16;1734043;82;21122;-82
2022/06/30 03:28:52;;;;;;;4.28;3.77;;;;;;;26.22;48.46;100573.77;1733904;82;21023;-82
2022/06/30 03:31:19;;;;;;;4.35;3.72;;;;;;;26.23;48.49;100580.13;1733768;82;21676;-82
2022/06/30 03:33:45;;;;;;;4.17;3.72;;;;;;;26.22;48.49;100580.73;1733807;82;21098;-82
2022/06/30 03:36:17;;;;;;;5.37;4.03;;;;;;;26.23;48.50;100581.52;1733707;82;21539;-82
2022/06/30 03:38:44;;;;;;;4.00;3.60;;;;;;;26.24;48.52;100585.94;1706602;82;22050;-82
2022/06/30 03:41:10;;;;;;;4.08;3.50;;;;;;;26.22;48.52;100591.08;1733797;81;21039;-82
2022/06/30 03:43:36;;;;;;;4.87;4.17;;;;;;;26.23;48.56;100587.09;1733970;82;21070;-82
2022/06/30 03:46:03;;;;;;;4.90;3.87;;;;;;;26.23;48.57;100588.49;1733857;82;21474;-82
2022/06/30 03:48:29;;;;;;;4.92;4.00;;;;;;;26.23;48.59;100595.46;1724351;82;21442;-82
2022/06/30 03:50:56;;;;;;;5.03;4.30;;;;;;;26.22;48.62;100599.45;1733906;82;21152;-82
2022/06/30 03:53:22;;;;;;;6.33;4.20;;;;;;;26.23;48.62;100596.86;1733747;82;21487;-82
2022/06/30 03:55:49;;;;;;;4.83;3.90;;;;;;;26.23;48.64;100609.41;1734102;82;21093;-82
2022/06/30 03:58:15;;;;;;;5.78;4.12;;;;;;;26.22;48.66;100604.44;1734014;82;21013;-82
2022/06/30 04:00:42;;;;;;;4.67;4.17;;;;;;;26.23;48.68;100603.25;1733045;82;21661;-82
2022/06/30 04:03:08;;;;;;;4.78;4.05;;;;;;;26.23;48.71;100597.67;1764244;81;21041;-82
2022/06/30 04:05:35;;;;;;;5.65;4.28;;;;;;;26.23;48.71;100606.03;1764398;81;21038;-82
2022/06/30 04:08:01;;;;;;;5.65;4.22;;;;;;;26.23;48.75;100600.46;1764047;81;21540;-82
2022/06/30 04:10:28;;;;;;;5.83;4.80;;;;;;;26.24;48.80;100611.03;1764364;81;21069;-82
2022/06/30 04:12:54;;;;;;;5.80;4.22;;;;;;;26.24;48.81;100602.67;1764348;81;21524;-82
2022/06/30 04:15:21;;;;;;;5.35;4.50;;;;;;;26.24;48.84;100607.66;1764143;81;23463;-82
2022/06/30 04:17:47;;;;;;;5.12;4.60;;;;;;;26.24;48.85;100597.09;1764358;81;21491;-82
2022/06/30 04:20:16;;;;;;;5.85;4.55;;;;;;;26.24;48.90;100605.45;1764465;81;21073;-82
2022/06/30 04:22:49;;;;;;;6.55;4.37;;;;;;;26.23;48.94;100611.61;1763868;81;21006;-82
2022/06/30 04:25:15;;;;;;;5.53;4.60;;;;;;;26.24;48.99;100621.61;1764663;81;21092;-82
2022/06/30 04:27:53;;;;;;;6.35;4.35;;;;;;;26.23;49.02;100621.38;1736354;81;21465;-82
2022/06/30 04:33:05;;;;;;;5.15;4.30;;;;;;;26.24;49.08;100618.81;1764112;81;21464;-82
2022/06/30 04:35:31;;;;;;;5.30;4.42;;;;;;;26.24;49.09;100618.01;1764171;81;21509;-82
2022/06/30 04:37:59;;;;;;;5.33;4.53;;;;;;;26.24;49.15;100612.42;1763045;81;21016;-82
2022/06/30 04:43:10;;;;;;;5.12;4.60;;;;;;;26.25;49.23;100616.84;1753760;80;21020;-82
2022/06/30 04:45:36;;;;;;;7.97;4.67;;;;;;;26.25;49.26;100616.84;1754209;80;21008;-82
2022/06/30 04:48:06;;;;;;;6.75;4.55;;;;;;;26.24;49.29;100620.21;1754342;81;20993;-82
2022/06/30 04:50:33;;;;;;;6.78;4.62;;;;;;;26.25;49.37;100614.87;1753780;81;21021;-82
2022/06/30 04:52:59;;;;;;;6.05;4.60;;;;;;;26.26;49.39;100617.08;1738454;81;21109;-82
2022/06/30 04:55:26;;;;;;;9.50;7.47;;;;;;;26.24;49.49;100610.45;1723506;83;21088;-82
2022/06/30 04:57:52;;;;;;;12.45;8.95;;;;;;;26.23;49.85;100613.01;1698654;83;21009;-82
2022/06/30 05:00:19;;;;;;;11.70;8.65;;;;;;;26.21;50.35;100611.18;1709235;83;21034;-82
2022/06/30 05:02:45;;;;;;;12.53;8.65;;;;;;;26.19;50.86;100608.48;1740313;81;21076;-82
2022/06/30 05:05:12;;;;;;;10.88;9.00;;;;;;;26.16;51.56;100608.62;1722915;82;21136;-82
2022/06/30 05:07:38;;;;;;;10.68;8.75;;;;;;;26.13;51.63;100607.97;1738627;82;21491;-81
2022/06/30 05:10:05;;;;;;;14.15;9.00;;;;;;;26.14;51.86;100605.98;1722858;82;21019;-82
2022/06/30 05:12:31;;;;;;;11.25;8.90;;;;;;;26.13;52.10;100605.75;1720560;83;21015;-82
2022/06/30 05:14:59;;;;;;;12.60;9.05;;;;;;;26.13;52.25;100605.75;1720718;83;21654;-82
2022/06/30 05:17:25;;;;;;;13.48;9.13;;;;;;;26.12;52.46;100612.50;1721240;83;21075;-82
2022/06/30 05:19:51;;;;;;;13.00;9.28;;;;;;;26.12;52.63;100613.89;1720501;83;21612;-82
2022/06/30 05:22:24;;;;;;;9.55;8.18;;;;;;;26.10;52.76;100610.05;1694958;82;21079;-82
2022/06/30 05:27:35;;;;;;;12.28;8.28;;;;;;;26.11;52.89;100615.05;1748520;81;21406;-82
2022/06/30 05:30:02;;;;;;;11.33;7.67;;;;;;;26.11;52.92;100620.63;1740949;81;21133;-81
2022/06/30 05:32:29;;;;;;;10.23;7.97;;;;;;;26.11;53.01;100624.81;1740699;81;21072;-82
2022/06/30 05:34:57;;;;;;;11.12;8.20;;;;;;;26.10;53.06;100621.20;1729293;82;21109;-82
2022/06/30 05:37:30;;;;;;;12.90;8.20;;;;;;;26.10;53.16;100623.19;1720075;82;21081;-81
2022/06/30 05:39:57;;;;;;;12.68;8.00;;;;;;;26.09;53.31;100622.41;1720436;83;21118;-82
2022/06/30 05:42:26;;;;;;;15.08;7.87;;;;;;;26.11;53.39;100628.99;1737610;81;21191;-81
2022/06/30 05:44:53;;;;;;;11.95;8.18;;;;;;;26.11;53.45;100625.62;1733166;81;21003;-82
2022/06/30 05:47:19;;;;;;;11.15;8.60;;;;;;;26.12;53.52;100626.44;1736141;81;21050;-82
2022/06/30 05:49:45;;;;;;;13.05;8.98;;;;;;;26.10;53.68;100628.18;1727475;81;21088;-81
2022/06/30 05:52:12;;;;;;;12.30;9.38;;;;;;;26.11;53.80;100627.02;1724922;82;21092;-82
2022/06/30 05:54:38;;;;;;;10.78;9.23;;;;;;;26.10;53.92;100622.60;1740619;81;21626;-82
2022/06/30 05:57:05;;;;;;;12.53;8.65;;;;;;;26.11;54.01;100628.41;1693322;82;21146;-82
2022/06/30 05:59:33;;;;;;;12.58;7.90;;;;;;;26.12;54.06;100629.22;1706037;83;21542;-82
2022/06/30 06:02:00;;;;;;;16.35;8.85;;;;;;;26.11;54.15;100633.98;1742788;81;21061;-82
2022/06/30 06:04:27;;;;;;;13.78;8.53;;;;;;;26.12;54.14;100631.43;1732852;81;21617;-82
2022/06/30 06:06:54;;;;;;;19.37;8.20;;;;;;;26.14;54.16;100640.84;1740694;81;21504;-82
2022/06/30 06:09:21;;;;;;;13.75;8.30;;;;;;;26.14;54.19;100643.02;1743942;81;21116;-81
2022/06/30 06:11:47;;;;;;;14.63;7.97;;;;;;;26.15;54.17;100643.25;1754369;81;21056;-81
2022/06/30 06:14:14;;;;;;;12.47;7.85;;;;;;;26.16;54.18;100640.70;1737547;82;21006;-81
2022/06/30 06:16:40;;;;;;;8.73;7.50;;;;;;;26.17;54.14;100646.50;1741001;81;21551;-81
2022/06/30 06:19:07;;;;;;;9.93;7.92;;;;;;;26.19;54.09;100651.13;1731428;81;21411;-82
2022/06/30 06:21:36;;;;;;;10.93;7.60;;;;;;;26.20;54.02;100646.39;1696499;83;21068;-82
2022/06/30 06:24:02;;;;;;;11.28;7.62;;;;;;;26.21;53.97;100644.65;1739403;82;21080;-81
2022/06/30 06:26:29;;;;;;;8.53;7.10;;;;;;;26.23;53.90;100649.84;1713755;83;21609;-81
2022/06/30 06:29:08;;;;;;;10.60;7.50;;;;;;;26.24;53.80;100646.70;1739845;81;21269;-81
2022/06/30 06:31:37;;;;;;;7.83;7.03;;;;;;;26.26;53.72;100639.39;1753058;81;21538;-81
2022/06/30 06:34:03;;;;;;;10.82;6.50;;;;;;;26.27;53.65;100647.95;1754076;81;21471;-81
2022/06/30 06:36:30;;;;;;;8.43;6.75;;;;;;;26.28;53.55;100646.80;1754200;81;21017;-82
2022/06/30 06:38:57;;;;;;;11.85;6.55;;;;;;;26.28;53.49;100651.79;1753799;80;20981;-83
2022/06/30 06:41:24;;;;;;;7.60;6.42;;;;;;;26.29;53.41;100656.78;1731127;81;21072;-82
2022/06/30 06:43:51;;;;;;;7.08;5.92;;;;;;;26.30;53.37;100655.62;1693566;83;21611;-82
2022/06/30 06:46:17;;;;;;;6.75;5.65;;;;;;;26.32;53.28;100663.03;1676828;84;21578;-81
2022/06/30 06:48:44;;;;;;;14.38;6.00;;;;;;;26.33;53.17;100659.08;1718211;81;21058;-81
2022/06/30 06:51:10;;;;;;;13.65;6.87;;;;;;;26.33;53.03;100658.50;1724307;81;21098;-82
2022/06/30 06:53:37;;;;;;;16.17;6.62;;;;;;;26.35;52.93;100657.53;1682498;84;21061;-81
2022/06/30 06:56:04;;;;;;;12.00;5.40;;;;;;;26.36;52.86;100649.40;1701049;84;21713;-81
2022/06/30 06:58:31;;;;;;;13.58;6.53;;;;;;;26.38;52.77;100655.21;1703038;83;21547;-80
2022/06/30 07:00:58;;;;;;;12.15;6.22;;;;;;;26.39;52.68;100657.65;1682030;83;21062;-82
2022/06/30 07:03:24;;;;;;;14.73;6.92;;;;;;;26.41;52.60;100655.88;1697418;84;21050;-77
2022/06/30 07:05:51;;;;;;;15.03;7.10;;;;;;;26.42;52.57;100658.90;1702440;82;21077;-81
2022/06/30 07:08:17;;;;;;;9.20;6.20;;;;;;;26.43;52.55;100652.97;1688206;84;21107;-81
2022/06/30 07:10:44;;;;;;;11.38;6.65;;;;;;;26.44;52.52;100647.59;1693303;84;21065;-82
2022/06/30 07:13:10;;;;;;;20.32;7.10;;;;;;;26.47;52.52;100651.66;1682533;84;21077;-82
2022/06/30 07:15:37;;;;;;;17.90;7.05;;;;;;;26.48;52.55;100651.27;1693979;84;21600;-82
2022/06/30 07:18:09;;;;;;;13.78;6.05;;;;;;;26.51;52.52;100652.55;1672611;85;21053;-83
2022/06/30 07:20:36;;;;;;;16.93;6.90;;;;;;;26.52;52.47;100650.77;1675455;84;22333;-81
2022/06/30 07:23:02;;;;;;;16.80;6.70;;;;;;;26.54;52.45;100643.45;1690321;84;21057;-82
2022/06/30 07:25:29;;;;;;;16.65;6.60;;;;;;;26.56;52.46;100646.70;1703038;83;21048;-81
2022/06/30 07:27:55;;;;;;;16.35;7.35;;;;;;;26.58;52.46;100649.92;1695286;84;21278;-85
2022/06/30 07:30:21;;;;;;;14.33;6.90;;;;;;;26.59;52.50;100645.38;1700285;83;21061;-82
2022/06/30 07:32:48;;;;;;;20.15;6.20;;;;;;;26.61;52.39;100649.19;1695880;84;21714;-81
2022/06/30 07:35:14;;;;;;;16.42;6.87;;;;;;;26.63;52.37;100648.25;1702245;84;21089;-81
2022/06/30 07:37:41;;;;;;;11.10;6.05;;;;;;;26.63;52.41;100645.47;1699492;84;21056;-81
2022/06/30 07:40:14;;;;;;;11.65;5.85;;;;;;;26.66;52.35;100640.55;1700758;84;21512;-81
2022/06/30 07:42:41;;;;;;;9.15;5.75;;;;;;;26.67;52.33;100646.36;1696466;83;21133;-81
2022/06/30 07:45:10;;;;;;;10.82;6.15;;;;;;;26.68;52.29;100640.42;1702717;83;21627;-81
2022/06/30 07:47:39;;;;;;;20.20;6.08;;;;;;;26.70;52.20;100635.86;1702644;83;21513;-81
2022/06/30 07:50:06;;;;;;;13.72;5.97;;;;;;;26.72;52.11;100637.71;1703228;83;21057;-81
2022/06/30 07:52:35;;;;;;;9.60;5.12;;;;;;;26.74;51.94;100636.75;1680783;83;21042;-81
2022/06/30 07:55:03;;;;;;;9.53;5.95;;;;;;;26.76;51.66;100626.86;1687823;84;21576;-82
2022/06/30 07:57:29;;;;;;;5.53;4.60;;;;;;;26.80;51.42;100630.53;1692284;83;21406;-81
2022/06/30 07:59:56;;;;;;;8.73;5.53;;;;;;;26.81;51.22;100631.34;1698945;84;21036;-81
2022/06/30 08:02:22;;;;;;;15.50;6.35;;;;;;;26.82;51.05;100625.96;1676183;84;21059;-81
2022/06/30 08:04:49;;;;;;;6.87;4.95;;;;;;;26.84;51.03;100632.00;1674815;85;21039;-81
2022/06/30 08:07:15;;;;;;;7.95;5.35;;;;;;;26.87;50.82;100630.48;1711767;83;21275;-81
2022/06/30 08:09:42;;;;;;;9.45;4.55;;;;;;;26.87;50.57;100625.72;1691729;83;21691;-81
2022/06/30 08:12:09;;;;;;;6.42;5.12;;;;;;;26.89;50.37;100625.36;1690832;83;21052;-81
2022/06/30 08:14:35;;;;;;;5.53;4.87;;;;;;;26.89;50.17;100628.97;1736842;82;21047;-81
2022/06/30 08:17:01;;;;;;;8.48;5.08;;;;;;;26.91;50.05;100628.00;1727865;82;21454;-80
2022/06/30 08:19:28;;;;;;;10.03;4.62;;;;;;;26.92;49.96;100631.02;1692330;83;21091;-81
2022/06/30 08:21:54;;;;;;;8.20;5.40;;;;;;;26.91;49.80;100623.81;1684848;83;21186;-81
2022/06/30 08:24:21;;;;;;;7.83;5.35;;;;;;;26.94;49.72;100627.88;1716202;82;21056;-81
2022/06/30 08:26:48;;;;;;;12.47;5.60;;;;;;;26.96;49.66;100626.91;1717286;81;21034;-81
2022/06/30 08:29:14;;;;;;;5.85;4.67;;;;;;;26.96;49.60;100628.30;1725259;82;21570;-80
2022/06/30 08:31:41;;;;;;;9.58;4.80;;;;;;;26.96;49.60;100629.11;1692910;84;21127;-80
2022/06/30 08:34:07;;;;;;;8.43;4.05;;;;;;;26.97;49.59;100623.76;1730066;82;21126;-80
2022/06/30 08:36:34;;;;;;;5.78;4.40;;;;;;;26.99;49.47;100630.39;1726733;82;21085;-80
2022/06/30 08:39:01;;;;;;;8.43;4.53;;;;;;;26.99;49.35;100624.19;1723256;83;21078;-81
2022/06/30 08:44:12;;;;;;;8.93;4.55;;;;;;;27.03;49.07;100620.88;1701976;82;21075;-80
2022/06/30 08:46:39;;;;;;;7.67;4.00;;;;;;;27.05;48.81;100614.36;1702795;83;20979;-80
2022/06/30 08:49:06;;;;;;;7.37;4.28;;;;;;;27.07;48.63;100615.41;1720070;82;21035;-80
2022/06/30 08:51:35;;;;;;;4.92;4.05;;;;;;;27.07;48.47;100616.80;1719922;81;21890;-80
2022/06/30 08:54:03;;;;;;;5.50;4.95;;;;;;;27.06;48.39;100611.80;1721631;83;21116;-80
2022/06/30 08:56:31;;;;;;;8.38;4.65;;;;;;;27.07;48.27;100619.01;1736980;81;21058;-79
2022/06/30 08:58:58;;;;;;;8.88;4.25;;;;;;;27.07;48.23;100625.98;1714406;83;21090;-80
2022/06/30 09:01:26;;;;;;;6.83;3.90;;;;;;;27.07;48.08;100619.01;1731477;81;21514;-81
2022/06/30 09:03:55;;;;;;;5.42;3.33;;;;;;;27.08;47.71;100622.58;1705099;81;21699;-80
2022/06/30 09:06:22;;;;;;;7.70;3.87;;;;;;;27.08;47.17;100617.81;1719441;81;21101;-81
2022/06/30 09:08:49;;;;;;;7.90;3.47;;;;;;;27.12;46.78;100617.88;1721559;81;21555;-80
2022/06/30 09:11:16;;;;;;;7.90;3.72;;;;;;;27.14;46.35;100612.16;1722324;83;21311;-81
2022/06/30 09:13:44;;;;;;;5.40;3.87;;;;;;;27.13;46.05;100611.13;1716351;81;21652;-82
2022/06/30 09:16:11;;;;;;;4.72;3.25;;;;;;;27.14;45.92;100607.98;1724750;81;21093;-81
2022/06/30 09:18:38;;;;;;;7.10;3.20;;;;;;;27.15;45.72;100599.83;1721455;83;21422;-81
2022/06/30 09:21:15;;;;;;;4.00;3.10;;;;;;;27.17;45.40;100604.44;1721577;83;21112;-80
2022/06/30 09:23:44;;;;;;;3.20;2.90;;;;;;;27.20;45.12;100607.89;1694118;84;21035;-81
2022/06/30 09:26:20;;;;;;;5.95;3.22;;;;;;;27.23;44.62;100620.33;1721940;83;20893;-80
2022/06/30 09:28:55;;;;;;;6.78;3.10;;;;;;;27.23;44.15;100608.58;1723215;83;20906;-81
2022/06/30 09:31:38;;;;;;;4.70;2.75;;;;;;;27.24;43.89;100608.77;1723208;83;20919;-81
2022/06/30 09:34:19;;;;;;;5.53;3.10;;;;;;;27.25;43.68;100605.39;1721616;82;20999;-81
2022/06/30 09:36:46;;;;;;;5.78;2.98;;;;;;;27.25;43.46;100602.59;1705194;81;21207;-81
2022/06/30 09:39:13;;;;;;;5.25;2.80;;;;;;;27.24;43.24;100597.59;1720402;82;20965;-82
2022/06/30 09:41:41;;;;;;;8.40;2.67;;;;;;;27.25;42.88;100596.42;1717265;81;21090;-81
2022/06/30 09:44:17;;;;;;;3.50;2.98;;;;;;;27.25;42.62;100590.84;1721718;81;21933;-81
2022/06/30 09:47:02;;;;;;;7.03;3.20;;;;;;;27.27;42.41;100589.09;1734778;82;21676;-81
2022/06/30 09:49:40;;;;;;;4.08;2.58;;;;;;;27.27;42.23;100583.50;1743906;81;21027;-80
2022/06/30 09:52:22;;;;;;;4.37;2.70;;;;;;;27.29;42.17;100589.52;1750251;81;21065;-81
2022/06/30 09:54:56;;;;;;;4.40;2.83;;;;;;;27.31;42.10;100589.16;1733088;81;21068;-79
2022/06/30 09:57:24;;;;;;;5.62;3.12;;;;;;;27.31;41.99;100589.16;1712279;82;21086;-80
2022/06/30 10:00:15;;;;;;;6.95;3.08;;;;;;;27.33;41.95;100588.99;1745640;81;21052;-80
2022/06/30 10:02:48;;;;;;;3.85;2.52;;;;;;;27.34;41.86;100587.01;1728565;81;21126;-81
2022/06/30 10:05:20;;;;;;;3.55;2.52;;;;;;;27.35;41.76;100582.46;1731055;82;21112;-81
2022/06/30 10:07:46;;;;;;;4.05;2.80;;;;;;;27.37;41.62;100577.91;1750375;81;21080;-80
2022/06/30 10:10:15;;;;;;;4.90;2.55;;;;;;;27.39;41.48;100584.73;1699878;82;21013;-80
2022/06/30 10:12:44;;;;;;;3.80;2.60;;;;;;;27.37;41.39;100575.91;1692520;83;21108;-81
2022/06/30 10:15:11;;;;;;;6.03;2.60;;;;;;;27.39;41.24;100576.94;1719326;82;21169;-80
2022/06/30 10:17:47;;;;;;;9.10;2.80;;;;;;;27.39;41.11;100574.95;1718186;83;21050;-81
2022/06/30 10:20:14;;;;;;;4.05;2.60;;;;;;;27.39;41.07;100572.16;1733643;82;21113;-81
2022/06/30 10:22:40;;;;;;;5.92;2.62;;;;;;;27.41;41.07;100575.99;1727329;81;21044;-81
2022/06/30 10:25:08;;;;;;;7.45;2.50;;;;;;;27.42;40.89;100567.81;1726878;81;22308;-81
2022/06/30 10:27:35;;;;;;;3.08;2.60;;;;;;;27.44;40.85;100570.47;1729547;81;21639;-80
2022/06/30 10:30:10;;;;;;;4.17;2.67;;;;;;;27.47;40.80;100567.52;1741501;81;21057;-80
2022/06/30 10:32:59;;;;;;;4.97;2.58;;;;;;;27.48;40.75;100565.79;1709379;81;35642;-81
2022/06/30 10:35:45;;;;;;;4.83;2.37;;;;;;;27.51;40.73;100560.03;1727997;81;21585;-80
2022/06/30 10:38:25;;;;;;;2.95;2.10;;;;;;;27.51;40.66;100563.64;1709881;81;21409;-81
2022/06/30 10:41:14;;;;;;;4.90;1.92;;;;;;;27.54;40.41;100562.11;1738509;82;21299;-81
2022/06/30 10:44:09;;;;;;;2.92;2.02;;;;;;;27.54;40.13;100554.51;1724285;82;21634;-80
2022/06/30 10:46:56;;;;;;;5.92;2.47;;;;;;;27.55;39.85;100549.14;1728190;81;21141;-81
2022/06/30 10:49:24;;;;;;;4.80;2.33;;;;;;;27.56;39.63;100546.58;1735876;82;21129;-81
2022/06/30 10:51:54;;;;;;;4.85;1.90;;;;;;;27.56;39.51;100542.38;1735220;82;21116;-81
2022/06/30 10:54:29;;;;;;;4.22;2.20;;;;;;;27.57;39.29;100536.21;1720511;82;21323;-81
2022/06/30 10:56:58;;;;;;;3.02;1.95;;;;;;;27.57;39.11;100542.61;1724341;82;22215;-80
2022/06/30 10:59:30;;;;;;;2.60;1.72;;;;;;;27.56;38.90;100531.20;1743363;82;21547;-81
2022/06/30 11:02:14;;;;;;;4.10;1.72;;;;;;;27.59;38.65;100528.25;1740003;81;21075;-81
2022/06/30 11:04:45;;;;;;;4.90;2.02;;;;;;;27.60;38.38;100524.28;1743211;81;21080;-81
2022/06/30 11:07:20;;;;;;;4.22;2.10;;;;;;;27.61;38.22;100530.09;1725004;82;21102;-80
2022/06/30 11:09:54;;;;;;;4.03;2.10;;;;;;;27.62;38.13;100521.94;1724898;82;21120;-80
2022/06/30 11:12:37;;;;;;;4.12;1.98;;;;;;;27.64;37.95;100513.97;1695072;83;21140;-80
2022/06/30 11:15:02;;;;;;;5.00;1.80;;;;;;;27.65;37.86;100509.41;1717038;82;21081;-80
2022/06/30 11:17:29;;;;;;;2.67;1.82;;;;;;;27.66;37.74;100506.84;1698084;83;21052;-80
2022/06/30 11:20:04;;;;;;;9.75;2.30;;;;;;;27.67;37.69;100507.63;1700788;83;21135;-81
2022/06/30 11:22:31;;;;;;;6.03;2.10;;;;;;;27.67;37.66;100497.25;1660893;84;21124;-80
2022/06/30 11:25:09;;;;;;;7.45;1.95;;;;;;;27.67;37.66;100493.06;1681848;85;21054;-80
2022/06/30 11:27:38;;;;;;;3.30;1.85;;;;;;;27.68;37.66;100496.67;1729322;82;21105;-80
2022/06/30 11:30:08;;;;;;;4.87;2.33;;;;;;;27.70;37.66;100488.73;1733237;82;21508;-80
2022/06/30 11:32:35;;;;;;;4.80;1.90;;;;;;;27.72;37.56;100491.95;1731378;82;21148;-80
2022/06/30 11:35:01;;;;;;;7.37;2.37;;;;;;;27.74;37.52;100493.79;1738507;82;21590;-81
2022/06/30 11:37:30;;;;;;;3.45;2.00;;;;;;;27.76;37.35;100499.80;1677022;84;21110;-80
2022/06/30 11:40:00;;;;;;;6.33;2.30;;;;;;;27.79;37.18;100495.47;1723472;82;21708;-80
2022/06/30 11:42:27;;;;;;;;;;;;;;;27.80;37.08;100497.87;1733232;82;21066;-80
2022/06/30 11:44:53;;;;;;;4.05;1.85;;;;;;;27.80;37.08;100497.05;1745663;81;21079;-80
2022/06/30 11:47:22;;;;;;;9.98;2.40;;;;;;;27.79;37.43;100496.28;1740123;81;21013;-81